This is the latest recevied weather packets stored in our database for station/object NEWPRT. If no packets are shown the sender has not sent any weather packets the latest 10 day(s).
| Time | Temp. | Humidity | Pressure | Rain* | Wind** | Luminosity | Snow |
|---|---|---|---|---|---|---|---|
| 1778088848 | - | 59% | 1022.7 hPa | 0 mm | - | - | - |
| 1778088524 | - | 60% | 1022.7 hPa | 0 mm | - | - | - |
| 1778088201 | - | 61% | 1022.7 hPa | 0 mm | - | - | - |
| 1778087878 | - | 60% | 1022.6 hPa | 0 mm | - | - | - |
| 1778087555 | - | 60% | 1022.5 hPa | 0 mm | - | - | - |
| 1778087233 | - | 62% | 1022.6 hPa | 0 mm | - | - | - |
| 1778086910 | - | 62% | 1022.7 hPa | 0 mm | - | - | - |
| 1778086586 | - | 60% | 1022.6 hPa | 0 mm | - | - | - |
| 1778086263 | - | 62% | 1022.6 hPa | 0 mm | - | - | - |
| 1778085940 | - | 60% | 1022.4 hPa | 0 mm | - | - | - |
| 1778085617 | - | 61% | 1022.4 hPa | 0 mm | - | - | - |
| 1778085294 | - | 65% | 1022.7 hPa | 0 mm | - | - | - |
| 1778084971 | - | 60% | 1022.1 hPa | 0 mm | - | - | - |
| 1778084648 | - | 63% | 1022.1 hPa | 0 mm | - | - | - |
| 1778084325 | - | 60% | 1022.3 hPa | 0 mm | - | - | - |
| 1778084002 | - | 61% | 1022.3 hPa | 0 mm | - | - | - |
| 1778083679 | - | 61% | 1022.2 hPa | 0 mm | - | - | - |
| 1778083356 | - | 62% | 1022.1 hPa | 0 mm | - | - | - |
| 1778083032 | - | 63% | 1022.3 hPa | 0 mm | - | - | - |
| 1778082710 | - | 64% | 1022.4 hPa | 0 mm | - | - | - |
| 1778082386 | - | 62% | 1021.9 hPa | 0 mm | - | - | - |
| 1778082064 | - | 62% | 1021.9 hPa | 0 mm | - | - | - |
| 1778081741 | - | 62% | 1021.8 hPa | 0 mm | - | - | - |
| 1778081418 | - | 62% | 1021.8 hPa | 0 mm | - | - | - |
| 1778081095 | - | 62% | 1021.6 hPa | 0 mm | - | - | - |
* Rain latest hour (hover to see other rain measurements)
** Current wind speed in m/s (hover to see current wind gust speed)